sensor_id;sensor_type;location;lat;lon;timestamp;P1;durP1;ratioP1;P2;durP2;ratioP2
27293;SDS011;14785;52.556;13.430;2022-09-21T00:00:42;9.20;;;5.53;;
27293;SDS011;14785;52.556;13.430;2022-09-21T00:03:07;9.03;;;5.30;;
27293;SDS011;14785;52.556;13.430;2022-09-21T00:05:33;8.32;;;4.95;;
27293;SDS011;14785;52.556;13.430;2022-09-21T00:08:00;7.75;;;4.93;;
27293;SDS011;14785;52.556;13.430;2022-09-21T00:10:26;7.65;;;4.45;;
27293;SDS011;14785;52.556;13.430;2022-09-21T00:12:52;4.95;;;4.50;;
27293;SDS011;14785;52.556;13.430;2022-09-21T00:15:17;6.93;;;4.57;;
27293;SDS011;14785;52.556;13.430;2022-09-21T00:17:43;7.13;;;5.30;;
27293;SDS011;14785;52.556;13.430;2022-09-21T00:20:10;9.35;;;5.30;;
27293;SDS011;14785;52.556;13.430;2022-09-21T00:22:35;12.30;;;5.73;;
27293;SDS011;14785;52.556;13.430;2022-09-21T00:25:02;8.13;;;5.30;;
27293;SDS011;14785;52.556;13.430;2022-09-21T00:27:28;7.57;;;5.38;;
27293;SDS011;14785;52.556;13.430;2022-09-21T00:29:57;10.07;;;6.07;;
27293;SDS011;14785;52.556;13.430;2022-09-21T00:32:27;8.57;;;5.00;;
27293;SDS011;14785;52.556;13.430;2022-09-21T00:34:55;8.05;;;5.05;;
27293;SDS011;14785;52.556;13.430;2022-09-21T00:37:21;6.05;;;4.38;;
27293;SDS011;14785;52.556;13.430;2022-09-21T00:39:47;8.07;;;5.60;;
27293;SDS011;14785;52.556;13.430;2022-09-21T00:42:19;6.57;;;4.77;;
27293;SDS011;14785;52.556;13.430;2022-09-21T00:44:46;7.15;;;5.43;;
27293;SDS011;14785;52.556;13.430;2022-09-21T00:47:13;9.33;;;5.10;;
27293;SDS011;14785;52.556;13.430;2022-09-21T00:49:42;6.38;;;4.80;;
27293;SDS011;14785;52.556;13.430;2022-09-21T00:52:11;6.80;;;4.90;;
27293;SDS011;14785;52.556;13.430;2022-09-21T00:54:41;8.65;;;5.65;;
27293;SDS011;14785;52.556;13.430;2022-09-21T00:57:10;9.43;;;5.32;;
27293;SDS011;14785;52.556;13.430;2022-09-21T00:59:37;9.05;;;4.93;;
27293;SDS011;14785;52.556;13.430;2022-09-21T01:02:03;9.15;;;6.03;;
27293;SDS011;14785;52.556;13.430;2022-09-21T01:04:29;8.60;;;5.50;;
27293;SDS011;14785;52.556;13.430;2022-09-21T01:06:55;7.55;;;5.00;;
27293;SDS011;14785;52.556;13.430;2022-09-21T01:09:26;6.85;;;5.55;;
27293;SDS011;14785;52.556;13.430;2022-09-21T01:12:02;8.80;;;5.65;;
27293;SDS011;14785;52.556;13.430;2022-09-21T01:14:59;13.82;;;6.07;;
27293;SDS011;14785;52.556;13.430;2022-09-21T01:17:47;9.40;;;6.20;;
27293;SDS011;14785;52.556;13.430;2022-09-21T01:28:57;9.03;;;5.50;;
27293;SDS011;14785;52.556;13.430;2022-09-21T01:31:45;8.60;;;6.05;;
27293;SDS011;14785;52.556;13.430;2022-09-21T01:34:32;10.50;;;5.97;;
27293;SDS011;14785;52.556;13.430;2022-09-21T01:37:04;9.82;;;5.65;;
27293;SDS011;14785;52.556;13.430;2022-09-21T01:39:35;10.10;;;6.10;;
27293;SDS011;14785;52.556;13.430;2022-09-21T01:42:04;10.65;;;6.03;;
27293;SDS011;14785;52.556;13.430;2022-09-21T01:44:31;8.27;;;6.47;;
27293;SDS011;14785;52.556;13.430;2022-09-21T01:47:00;9.23;;;6.45;;
27293;SDS011;14785;52.556;13.430;2022-09-21T01:49:31;12.88;;;7.00;;
27293;SDS011;14785;52.556;13.430;2022-09-21T01:54:48;10.23;;;6.57;;
27293;SDS011;14785;52.556;13.430;2022-09-21T01:57:25;11.73;;;6.87;;
27293;SDS011;14785;52.556;13.430;2022-09-21T02:00:14;13.85;;;7.22;;
27293;SDS011;14785;52.556;13.430;2022-09-21T02:05:10;7.97;;;7.00;;
27293;SDS011;14785;52.556;13.430;2022-09-21T02:07:37;11.20;;;6.05;;
27293;SDS011;14785;52.556;13.430;2022-09-21T02:12:31;9.55;;;6.20;;
27293;SDS011;14785;52.556;13.430;2022-09-21T02:14:56;10.03;;;6.33;;
27293;SDS011;14785;52.556;13.430;2022-09-21T02:17:38;14.88;;;7.57;;
27293;SDS011;14785;52.556;13.430;2022-09-21T02:20:19;14.68;;;6.75;;
27293;SDS011;14785;52.556;13.430;2022-09-21T02:23:07;9.60;;;6.63;;
27293;SDS011;14785;52.556;13.430;2022-09-21T02:25:40;12.43;;;7.00;;
27293;SDS011;14785;52.556;13.430;2022-09-21T02:28:12;11.30;;;6.70;;
27293;SDS011;14785;52.556;13.430;2022-09-21T02:30:52;10.02;;;6.75;;
27293;SDS011;14785;52.556;13.430;2022-09-21T02:33:27;10.70;;;7.10;;
27293;SDS011;14785;52.556;13.430;2022-09-21T02:36:02;12.57;;;7.60;;
27293;SDS011;14785;52.556;13.430;2022-09-21T02:38:36;15.73;;;8.27;;
27293;SDS011;14785;52.556;13.430;2022-09-21T02:44:03;15.95;;;9.70;;
27293;SDS011;14785;52.556;13.430;2022-09-21T02:46:34;15.13;;;9.57;;
27293;SDS011;14785;52.556;13.430;2022-09-21T02:49:04;15.40;;;8.23;;
27293;SDS011;14785;52.556;13.430;2022-09-21T02:51:36;13.48;;;9.07;;
27293;SDS011;14785;52.556;13.430;2022-09-21T02:54:06;13.00;;;8.95;;
27293;SDS011;14785;52.556;13.430;2022-09-21T02:56:34;19.02;;;10.52;;
27293;SDS011;14785;52.556;13.430;2022-09-21T03:01:28;19.20;;;10.85;;
27293;SDS011;14785;52.556;13.430;2022-09-21T03:06:20;18.47;;;10.20;;
27293;SDS011;14785;52.556;13.430;2022-09-21T03:08:45;17.03;;;10.60;;
27293;SDS011;14785;52.556;13.430;2022-09-21T03:11:10;12.13;;;8.43;;
27293;SDS011;14785;52.556;13.430;2022-09-21T03:13:41;14.38;;;8.80;;
27293;SDS011;14785;52.556;13.430;2022-09-21T03:16:06;17.17;;;8.80;;
27293;SDS011;14785;52.556;13.430;2022-09-21T03:18:31;12.00;;;8.73;;
27293;SDS011;14785;52.556;13.430;2022-09-21T03:20:57;14.70;;;9.52;;
27293;SDS011;14785;52.556;13.430;2022-09-21T03:25:49;14.20;;;10.03;;
27293;SDS011;14785;52.556;13.430;2022-09-21T03:28:16;13.07;;;9.98;;
27293;SDS011;14785;52.556;13.430;2022-09-21T03:30:42;10.63;;;7.80;;
27293;SDS011;14785;52.556;13.430;2022-09-21T03:33:08;13.97;;;8.00;;
27293;SDS011;14785;52.556;13.430;2022-09-21T03:35:34;10.63;;;7.70;;
27293;SDS011;14785;52.556;13.430;2022-09-21T03:37:59;10.93;;;7.53;;
27293;SDS011;14785;52.556;13.430;2022-09-21T03:40:25;11.90;;;7.50;;
27293;SDS011;14785;52.556;13.430;2022-09-21T03:42:52;15.30;;;9.10;;
27293;SDS011;14785;52.556;13.430;2022-09-21T03:47:43;10.75;;;7.80;;
27293;SDS011;14785;52.556;13.430;2022-09-21T03:50:09;10.00;;;7.90;;
27293;SDS011;14785;52.556;13.430;2022-09-21T03:52:36;13.57;;;9.32;;
27293;SDS011;14785;52.556;13.430;2022-09-21T03:55:03;11.60;;;9.00;;
27293;SDS011;14785;52.556;13.430;2022-09-21T03:57:30;13.93;;;8.82;;
27293;SDS011;14785;52.556;13.430;2022-09-21T04:00:00;14.32;;;8.15;;
27293;SDS011;14785;52.556;13.430;2022-09-21T04:02:28;13.10;;;8.20;;
27293;SDS011;14785;52.556;13.430;2022-09-21T04:04:54;11.20;;;8.57;;
27293;SDS011;14785;52.556;13.430;2022-09-21T04:07:19;12.27;;;9.07;;
27293;SDS011;14785;52.556;13.430;2022-09-21T04:09:44;10.97;;;9.77;;
27293;SDS011;14785;52.556;13.430;2022-09-21T04:12:10;13.17;;;8.87;;
27293;SDS011;14785;52.556;13.430;2022-09-21T04:14:36;12.63;;;9.65;;
27293;SDS011;14785;52.556;13.430;2022-09-21T04:17:01;13.00;;;9.53;;
27293;SDS011;14785;52.556;13.430;2022-09-21T04:19:26;13.77;;;8.70;;
27293;SDS011;14785;52.556;13.430;2022-09-21T04:21:52;16.67;;;10.67;;
27293;SDS011;14785;52.556;13.430;2022-09-21T04:24:18;14.50;;;9.57;;
27293;SDS011;14785;52.556;13.430;2022-09-21T04:26:44;14.33;;;8.27;;
27293;SDS011;14785;52.556;13.430;2022-09-21T04:29:10;14.95;;;10.13;;
27293;SDS011;14785;52.556;13.430;2022-09-21T04:31:36;17.92;;;10.60;;
27293;SDS011;14785;52.556;13.430;2022-09-21T04:34:02;13.70;;;9.47;;
27293;SDS011;14785;52.556;13.430;2022-09-21T04:36:28;11.90;;;9.33;;
27293;SDS011;14785;52.556;13.430;2022-09-21T04:38:53;14.60;;;10.82;;
27293;SDS011;14785;52.556;13.430;2022-09-21T04:41:19;12.40;;;9.10;;
27293;SDS011;14785;52.556;13.430;2022-09-21T04:43:45;12.40;;;9.57;;
27293;SDS011;14785;52.556;13.430;2022-09-21T04:46:12;11.25;;;8.30;;
27293;SDS011;14785;52.556;13.430;2022-09-21T04:48:39;15.90;;;10.80;;
27293;SDS011;14785;52.556;13.430;2022-09-21T04:51:05;16.20;;;9.63;;
27293;SDS011;14785;52.556;13.430;2022-09-21T04:53:34;15.48;;;10.43;;
27293;SDS011;14785;52.556;13.430;2022-09-21T04:56:02;14.80;;;10.20;;
27293;SDS011;14785;52.556;13.430;2022-09-21T04:58:29;14.30;;;10.52;;
27293;SDS011;14785;52.556;13.430;2022-09-21T05:00:54;14.70;;;9.93;;
27293;SDS011;14785;52.556;13.430;2022-09-21T05:03:21;17.98;;;10.20;;
27293;SDS011;14785;52.556;13.430;2022-09-21T05:05:47;17.55;;;11.27;;
27293;SDS011;14785;52.556;13.430;2022-09-21T05:08:14;15.70;;;11.75;;
27293;SDS011;14785;52.556;13.430;2022-09-21T05:10:40;13.85;;;9.45;;
27293;SDS011;14785;52.556;13.430;2022-09-21T05:13:05;12.87;;;8.97;;
27293;SDS011;14785;52.556;13.430;2022-09-21T05:15:31;18.67;;;11.47;;
27293;SDS011;14785;52.556;13.430;2022-09-21T05:17:56;20.57;;;11.60;;
27293;SDS011;14785;52.556;13.430;2022-09-21T05:20:21;18.33;;;11.50;;
27293;SDS011;14785;52.556;13.430;2022-09-21T05:22:47;21.10;;;12.40;;
27293;SDS011;14785;52.556;13.430;2022-09-21T05:25:12;24.80;;;13.00;;
27293;SDS011;14785;52.556;13.430;2022-09-21T05:27:37;18.17;;;14.80;;
27293;SDS011;14785;52.556;13.430;2022-09-21T05:30:03;19.03;;;13.37;;
27293;SDS011;14785;52.556;13.430;2022-09-21T05:37:40;20.73;;;11.75;;
27293;SDS011;14785;52.556;13.430;2022-09-21T05:40:30;16.33;;;11.25;;
27293;SDS011;14785;52.556;13.430;2022-09-21T05:42:55;16.80;;;10.87;;
27293;SDS011;14785;52.556;13.430;2022-09-21T05:45:21;17.53;;;11.37;;
27293;SDS011;14785;52.556;13.430;2022-09-21T05:50:48;17.63;;;9.50;;
27293;SDS011;14785;52.556;13.430;2022-09-21T05:56:02;14.98;;;8.98;;
27293;SDS011;14785;52.556;13.430;2022-09-21T06:03:54;16.55;;;9.43;;
27293;SDS011;14785;52.556;13.430;2022-09-21T06:06:20;16.77;;;9.88;;
27293;SDS011;14785;52.556;13.430;2022-09-21T06:08:46;15.80;;;9.40;;
27293;SDS011;14785;52.556;13.430;2022-09-21T06:11:12;16.80;;;9.33;;
27293;SDS011;14785;52.556;13.430;2022-09-21T06:13:38;13.88;;;9.55;;
27293;SDS011;14785;52.556;13.430;2022-09-21T06:16:05;17.95;;;10.68;;
27293;SDS011;14785;52.556;13.430;2022-09-21T06:18:30;15.88;;;10.35;;
27293;SDS011;14785;52.556;13.430;2022-09-21T06:21:00;13.25;;;9.30;;
27293;SDS011;14785;52.556;13.430;2022-09-21T06:23:25;16.73;;;9.23;;
27293;SDS011;14785;52.556;13.430;2022-09-21T06:25:51;14.80;;;10.13;;
27293;SDS011;14785;52.556;13.430;2022-09-21T06:28:17;14.55;;;8.60;;
27293;SDS011;14785;52.556;13.430;2022-09-21T06:30:42;15.50;;;8.50;;
27293;SDS011;14785;52.556;13.430;2022-09-21T06:33:09;13.80;;;9.23;;
27293;SDS011;14785;52.556;13.430;2022-09-21T06:35:35;22.00;;;10.67;;
27293;SDS011;14785;52.556;13.430;2022-09-21T06:38:04;13.93;;;9.30;;
27293;SDS011;14785;52.556;13.430;2022-09-21T06:40:31;17.13;;;10.15;;
27293;SDS011;14785;52.556;13.430;2022-09-21T06:42:59;20.63;;;10.35;;
27293;SDS011;14785;52.556;13.430;2022-09-21T06:45:26;20.98;;;10.63;;
27293;SDS011;14785;52.556;13.430;2022-09-21T06:50:17;16.23;;;9.50;;
27293;SDS011;14785;52.556;13.430;2022-09-21T06:52:43;17.08;;;9.68;;
27293;SDS011;14785;52.556;13.430;2022-09-21T06:55:08;13.80;;;9.00;;
27293;SDS011;14785;52.556;13.430;2022-09-21T06:57:34;16.87;;;10.77;;
27293;SDS011;14785;52.556;13.430;2022-09-21T07:00:02;21.55;;;10.90;;
27293;SDS011;14785;52.556;13.430;2022-09-21T07:02:28;16.50;;;8.95;;
27293;SDS011;14785;52.556;13.430;2022-09-21T07:04:53;18.07;;;11.13;;
27293;SDS011;14785;52.556;13.430;2022-09-21T07:07:18;22.40;;;12.10;;
27293;SDS011;14785;52.556;13.430;2022-09-21T07:09:44;19.57;;;10.53;;
27293;SDS011;14785;52.556;13.430;2022-09-21T07:12:09;18.00;;;10.77;;
27293;SDS011;14785;52.556;13.430;2022-09-21T07:14:35;18.57;;;11.77;;
27293;SDS011;14785;52.556;13.430;2022-09-21T07:17:00;18.80;;;11.33;;
27293;SDS011;14785;52.556;13.430;2022-09-21T07:19:26;19.08;;;11.30;;
27293;SDS011;14785;52.556;13.430;2022-09-21T07:21:54;23.47;;;11.00;;
27293;SDS011;14785;52.556;13.430;2022-09-21T07:24:19;20.45;;;11.60;;
27293;SDS011;14785;52.556;13.430;2022-09-21T07:26:45;17.80;;;9.90;;
27293;SDS011;14785;52.556;13.430;2022-09-21T07:29:10;17.40;;;10.90;;
27293;SDS011;14785;52.556;13.430;2022-09-21T07:31:36;22.43;;;10.83;;
27293;SDS011;14785;52.556;13.430;2022-09-21T07:34:01;16.37;;;10.50;;
27293;SDS011;14785;52.556;13.430;2022-09-21T07:36:27;23.87;;;10.57;;
27293;SDS011;14785;52.556;13.430;2022-09-21T07:38:52;14.53;;;10.57;;
27293;SDS011;14785;52.556;13.430;2022-09-21T07:41:18;18.10;;;9.57;;
27293;SDS011;14785;52.556;13.430;2022-09-21T07:43:43;18.80;;;10.57;;
27293;SDS011;14785;52.556;13.430;2022-09-21T07:46:09;20.13;;;11.33;;
27293;SDS011;14785;52.556;13.430;2022-09-21T07:48:36;19.50;;;10.38;;
27293;SDS011;14785;52.556;13.430;2022-09-21T07:51:05;25.20;;;10.77;;
27293;SDS011;14785;52.556;13.430;2022-09-21T07:53:33;24.80;;;11.27;;
27293;SDS011;14785;52.556;13.430;2022-09-21T07:56:03;22.23;;;11.45;;
27293;SDS011;14785;52.556;13.430;2022-09-21T07:58:30;19.95;;;10.80;;
27293;SDS011;14785;52.556;13.430;2022-09-21T08:01:15;16.83;;;10.20;;
27293;SDS011;14785;52.556;13.430;2022-09-21T08:03:41;27.73;;;11.32;;
27293;SDS011;14785;52.556;13.430;2022-09-21T08:06:07;21.03;;;10.63;;
27293;SDS011;14785;52.556;13.430;2022-09-21T08:08:33;20.77;;;10.20;;
27293;SDS011;14785;52.556;13.430;2022-09-21T08:11:05;18.97;;;8.83;;
27293;SDS011;14785;52.556;13.430;2022-09-21T08:13:30;22.40;;;10.45;;
27293;SDS011;14785;52.556;13.430;2022-09-21T08:15:56;23.47;;;10.17;;
27293;SDS011;14785;52.556;13.430;2022-09-21T08:18:26;19.88;;;9.05;;
27293;SDS011;14785;52.556;13.430;2022-09-21T08:20:52;25.23;;;11.10;;
27293;SDS011;14785;52.556;13.430;2022-09-21T08:23:21;22.00;;;11.32;;
27293;SDS011;14785;52.556;13.430;2022-09-21T08:25:47;20.47;;;9.13;;
27293;SDS011;14785;52.556;13.430;2022-09-21T08:28:12;21.57;;;11.90;;
27293;SDS011;14785;52.556;13.430;2022-09-21T08:30:38;17.75;;;8.57;;
27293;SDS011;14785;52.556;13.430;2022-09-21T08:33:04;17.58;;;8.50;;
27293;SDS011;14785;52.556;13.430;2022-09-21T08:35:31;16.30;;;8.23;;
27293;SDS011;14785;52.556;13.430;2022-09-21T08:37:56;14.40;;;8.53;;
27293;SDS011;14785;52.556;13.430;2022-09-21T08:40:21;13.90;;;8.40;;
27293;SDS011;14785;52.556;13.430;2022-09-21T08:45:33;15.85;;;8.40;;
27293;SDS011;14785;52.556;13.430;2022-09-21T08:48:05;14.75;;;8.60;;
27293;SDS011;14785;52.556;13.430;2022-09-21T08:53:14;18.35;;;7.38;;
27293;SDS011;14785;52.556;13.430;2022-09-21T08:55:49;11.73;;;6.88;;
27293;SDS011;14785;52.556;13.430;2022-09-21T08:58:24;16.93;;;6.50;;
27293;SDS011;14785;52.556;13.430;2022-09-21T09:11:58;16.90;;;7.87;;
27293;SDS011;14785;52.556;13.430;2022-09-21T09:20:21;11.57;;;5.82;;
27293;SDS011;14785;52.556;13.430;2022-09-21T09:23:10;16.67;;;7.72;;
27293;SDS011;14785;52.556;13.430;2022-09-21T09:25:44;15.13;;;5.32;;
27293;SDS011;14785;52.556;13.430;2022-09-21T09:30:45;12.63;;;6.35;;
27293;SDS011;14785;52.556;13.430;2022-09-21T09:33:21;13.98;;;5.80;;
27293;SDS011;14785;52.556;13.430;2022-09-21T09:36:02;11.35;;;5.72;;
27293;SDS011;14785;52.556;13.430;2022-09-21T09:38:35;13.65;;;5.25;;
27293;SDS011;14785;52.556;13.430;2022-09-21T09:46:32;7.70;;;4.28;;
27293;SDS011;14785;52.556;13.430;2022-09-21T09:51:52;11.98;;;4.95;;
27293;SDS011;14785;52.556;13.430;2022-09-21T09:54:18;9.47;;;4.40;;
27293;SDS011;14785;52.556;13.430;2022-09-21T09:56:46;6.97;;;4.22;;
27293;SDS011;14785;52.556;13.430;2022-09-21T09:59:23;9.80;;;4.40;;
27293;SDS011;14785;52.556;13.430;2022-09-21T10:02:04;8.55;;;4.47;;
27293;SDS011;14785;52.556;13.430;2022-09-21T10:05:01;14.35;;;4.47;;
27293;SDS011;14785;52.556;13.430;2022-09-21T10:07:40;5.57;;;2.70;;
27293;SDS011;14785;52.556;13.430;2022-09-21T10:13:02;5.97;;;3.22;;
27293;SDS011;14785;52.556;13.430;2022-09-21T10:15:34;6.82;;;3.03;;
27293;SDS011;14785;52.556;13.430;2022-09-21T10:18:16;8.20;;;3.28;;
27293;SDS011;14785;52.556;13.430;2022-09-21T10:20:55;6.18;;;2.80;;
27293;SDS011;14785;52.556;13.430;2022-09-21T10:23:23;9.18;;;3.15;;
27293;SDS011;14785;52.556;13.430;2022-09-21T10:25:57;5.18;;;2.00;;
27293;SDS011;14785;52.556;13.430;2022-09-21T10:28:25;7.97;;;2.75;;
27293;SDS011;14785;52.556;13.430;2022-09-21T10:31:08;2.40;;;1.30;;
27293;SDS011;14785;52.556;13.430;2022-09-21T10:33:38;4.72;;;1.23;;
27293;SDS011;14785;52.556;13.430;2022-09-21T10:36:30;5.20;;;1.40;;
27293;SDS011;14785;52.556;13.430;2022-09-21T10:39:19;3.17;;;1.10;;
27293;SDS011;14785;52.556;13.430;2022-09-21T10:42:33;3.47;;;1.05;;
27293;SDS011;14785;52.556;13.430;2022-09-21T10:44:43;1.85;;;1.10;;
27293;SDS011;14785;52.556;13.430;2022-09-21T10:47:18;1.50;;;0.88;;
27293;SDS011;14785;52.556;13.430;2022-09-21T10:49:53;3.13;;;0.90;;
27293;SDS011;14785;52.556;13.430;2022-09-21T10:52:21;4.18;;;1.00;;
27293;SDS011;14785;52.556;13.430;2022-09-21T10:54:56;2.47;;;0.80;;
27293;SDS011;14785;52.556;13.430;2022-09-21T10:57:22;3.00;;;1.10;;
27293;SDS011;14785;52.556;13.430;2022-09-21T10:59:50;2.65;;;1.25;;
27293;SDS011;14785;52.556;13.430;2022-09-21T11:02:26;3.17;;;0.70;;
27293;SDS011;14785;52.556;13.430;2022-09-21T11:04:59;0.85;;;0.75;;
27293;SDS011;14785;52.556;13.430;2022-09-21T11:07:51;2.38;;;0.90;;
27293;SDS011;14785;52.556;13.430;2022-09-21T11:21:12;1.27;;;0.57;;
27293;SDS011;14785;52.556;13.430;2022-09-21T11:23:54;3.90;;;1.00;;
27293;SDS011;14785;52.556;13.430;2022-09-21T11:29:27;2.25;;;0.98;;
27293;SDS011;14785;52.556;13.430;2022-09-21T11:42:40;2.92;;;1.48;;
27293;SDS011;14785;52.556;13.430;2022-09-21T12:04:04;1.83;;;0.75;;
27293;SDS011;14785;52.556;13.430;2022-09-21T12:14:37;2.70;;;1.13;;
27293;SDS011;14785;52.556;13.430;2022-09-21T12:19:51;2.13;;;1.05;;
27293;SDS011;14785;52.556;13.430;2022-09-21T12:22:36;1.67;;;1.15;;
27293;SDS011;14785;52.556;13.430;2022-09-21T12:25:25;1.55;;;0.90;;
27293;SDS011;14785;52.556;13.430;2022-09-21T12:27:58;2.05;;;0.90;;
27293;SDS011;14785;52.556;13.430;2022-09-21T12:30:29;1.20;;;0.90;;
27293;SDS011;14785;52.556;13.430;2022-09-21T12:32:58;1.48;;;1.15;;
27293;SDS011;14785;52.556;13.430;2022-09-21T12:35:43;3.72;;;1.00;;
27293;SDS011;14785;52.556;13.430;2022-09-21T12:46:35;1.63;;;0.98;;
27293;SDS011;14785;52.556;13.430;2022-09-21T12:49:08;3.67;;;1.40;;
27293;SDS011;14785;52.556;13.430;2022-09-21T12:51:56;3.80;;;1.33;;
27293;SDS011;14785;52.556;13.430;2022-09-21T12:54:33;1.95;;;1.13;;
27293;SDS011;14785;52.556;13.430;2022-09-21T12:57:10;6.80;;;1.35;;
27293;SDS011;14785;52.556;13.430;2022-09-21T12:59:54;1.73;;;0.90;;
27293;SDS011;14785;52.556;13.430;2022-09-21T13:02:32;6.03;;;3.67;;
27293;SDS011;14785;52.556;13.430;2022-09-21T13:05:06;2.50;;;0.82;;
27293;SDS011;14785;52.556;13.430;2022-09-21T13:07:47;4.07;;;1.20;;
27293;SDS011;14785;52.556;13.430;2022-09-21T13:13:06;1.67;;;0.80;;
27293;SDS011;14785;52.556;13.430;2022-09-21T13:15:43;3.08;;;0.80;;
27293;SDS011;14785;52.556;13.430;2022-09-21T13:18:30;2.88;;;0.93;;
27293;SDS011;14785;52.556;13.430;2022-09-21T13:20:59;1.83;;;0.70;;
27293;SDS011;14785;52.556;13.430;2022-09-21T13:25:58;1.10;;;0.87;;
27293;SDS011;14785;52.556;13.430;2022-09-21T13:28:39;2.97;;;0.90;;
27293;SDS011;14785;52.556;13.430;2022-09-21T13:33:40;2.05;;;0.77;;
27293;SDS011;14785;52.556;13.430;2022-09-21T13:36:45;4.07;;;1.25;;
27293;SDS011;14785;52.556;13.430;2022-09-21T13:44:52;1.17;;;0.90;;
27293;SDS011;14785;52.556;13.430;2022-09-21T13:47:19;0.93;;;0.70;;
27293;SDS011;14785;52.556;13.430;2022-09-21T13:49:53;3.13;;;1.52;;
27293;SDS011;14785;52.556;13.430;2022-09-21T13:52:21;1.03;;;0.80;;
27293;SDS011;14785;52.556;13.430;2022-09-21T13:57:25;0.63;;;0.60;;
27293;SDS011;14785;52.556;13.430;2022-09-21T14:00:04;1.15;;;0.50;;
27293;SDS011;14785;52.556;13.430;2022-09-21T14:02:32;0.70;;;0.60;;
27293;SDS011;14785;52.556;13.430;2022-09-21T14:05:02;3.75;;;0.60;;
27293;SDS011;14785;52.556;13.430;2022-09-21T14:07:32;0.40;;;0.40;;
27293;SDS011;14785;52.556;13.430;2022-09-21T14:09:59;0.77;;;0.52;;
27293;SDS011;14785;52.556;13.430;2022-09-21T14:12:31;2.03;;;0.57;;
27293;SDS011;14785;52.556;13.430;2022-09-21T14:17:43;0.70;;;0.50;;
27293;SDS011;14785;52.556;13.430;2022-09-21T14:20:29;1.08;;;0.57;;
27293;SDS011;14785;52.556;13.430;2022-09-21T14:28:55;0.50;;;0.47;;
27293;SDS011;14785;52.556;13.430;2022-09-21T14:33:53;2.72;;;0.68;;
27293;SDS011;14785;52.556;13.430;2022-09-21T14:36:23;1.42;;;0.47;;
27293;SDS011;14785;52.556;13.430;2022-09-21T14:38:56;0.88;;;0.25;;
27293;SDS011;14785;52.556;13.430;2022-09-21T14:41:24;0.30;;;0.30;;
27293;SDS011;14785;52.556;13.430;2022-09-21T14:43:56;0.35;;;0.35;;
27293;SDS011;14785;52.556;13.430;2022-09-21T14:46:38;0.45;;;0.32;;
27293;SDS011;14785;52.556;13.430;2022-09-21T14:57:51;0.85;;;0.38;;
27293;SDS011;14785;52.556;13.430;2022-09-21T15:00:39;0.20;;;0.20;;
27293;SDS011;14785;52.556;13.430;2022-09-21T15:05:42;2.28;;;0.85;;
27293;SDS011;14785;52.556;13.430;2022-09-21T15:21:46;0.50;;;0.30;;
27293;SDS011;14785;52.556;13.430;2022-09-21T15:24:32;0.47;;;0.30;;
27293;SDS011;14785;52.556;13.430;2022-09-21T15:27:03;1.45;;;0.32;;
27293;SDS011;14785;52.556;13.430;2022-09-21T15:29:34;1.90;;;0.47;;
27293;SDS011;14785;52.556;13.430;2022-09-21T15:32:01;0.20;;;0.20;;
27293;SDS011;14785;52.556;13.430;2022-09-21T15:36:53;0.35;;;0.30;;
27293;SDS011;14785;52.556;13.430;2022-09-21T15:39:30;0.32;;;0.32;;
27293;SDS011;14785;52.556;13.430;2022-09-21T15:44:34;0.20;;;0.20;;
27293;SDS011;14785;52.556;13.430;2022-09-21T15:47:01;2.85;;;1.15;;
27293;SDS011;14785;52.556;13.430;2022-09-21T15:49:28;1.70;;;0.77;;
27293;SDS011;14785;52.556;13.430;2022-09-21T15:51:55;0.47;;;0.30;;
27293;SDS011;14785;52.556;13.430;2022-09-21T15:54:30;1.08;;;0.47;;
27293;SDS011;14785;52.556;13.430;2022-09-21T15:57:00;3.58;;;0.13;;
27293;SDS011;14785;52.556;13.430;2022-09-21T15:59:30;0.68;;;0.55;;
27293;SDS011;14785;52.556;13.430;2022-09-21T16:01:57;1.95;;;0.90;;
27293;SDS011;14785;52.556;13.430;2022-09-21T16:04:25;2.88;;;0.40;;
27293;SDS011;14785;52.556;13.430;2022-09-21T16:06:59;0.52;;;0.20;;
27293;SDS011;14785;52.556;13.430;2022-09-21T16:09:36;0.80;;;0.38;;
27293;SDS011;14785;52.556;13.430;2022-09-21T16:14:50;0.40;;;0.30;;
27293;SDS011;14785;52.556;13.430;2022-09-21T16:17:25;0.85;;;0.45;;
27293;SDS011;14785;52.556;13.430;2022-09-21T16:22:29;0.30;;;0.30;;
27293;SDS011;14785;52.556;13.430;2022-09-21T16:25:02;1.05;;;0.70;;
27293;SDS011;14785;52.556;13.430;2022-09-21T16:28:01;0.80;;;0.40;;
27293;SDS011;14785;52.556;13.430;2022-09-21T16:30:50;0.50;;;0.38;;
27293;SDS011;14785;52.556;13.430;2022-09-21T16:34:18;0.60;;;0.30;;
27293;SDS011;14785;52.556;13.430;2022-09-21T16:38:41;0.38;;;0.30;;
27293;SDS011;14785;52.556;13.430;2022-09-21T16:41:06;1.27;;;0.70;;
27293;SDS011;14785;52.556;13.430;2022-09-21T16:43:32;1.35;;;0.57;;
27293;SDS011;14785;52.556;13.430;2022-09-21T16:46:07;0.40;;;0.40;;
27293;SDS011;14785;52.556;13.430;2022-09-21T16:48:32;0.17;;;0.17;;
27293;SDS011;14785;52.556;13.430;2022-09-21T16:50:58;0.23;;;0.20;;
27293;SDS011;14785;52.556;13.430;2022-09-21T16:53:23;0.53;;;0.53;;
27293;SDS011;14785;52.556;13.430;2022-09-21T16:55:50;0.65;;;0.40;;
27293;SDS011;14785;52.556;13.430;2022-09-21T16:58:17;1.27;;;0.60;;
27293;SDS011;14785;52.556;13.430;2022-09-21T17:00:45;1.17;;;0.80;;
27293;SDS011;14785;52.556;13.430;2022-09-21T17:03:13;1.42;;;0.80;;
27293;SDS011;14785;52.556;13.430;2022-09-21T17:05:40;1.08;;;0.60;;
27293;SDS011;14785;52.556;13.430;2022-09-21T17:08:07;0.60;;;0.60;;
27293;SDS011;14785;52.556;13.430;2022-09-21T17:10:36;1.10;;;0.80;;
27293;SDS011;14785;52.556;13.430;2022-09-21T17:13:04;2.10;;;0.90;;
27293;SDS011;14785;52.556;13.430;2022-09-21T17:15:31;0.77;;;0.52;;
27293;SDS011;14785;52.556;13.430;2022-09-21T17:17:57;1.40;;;0.80;;
27293;SDS011;14785;52.556;13.430;2022-09-21T17:20:32;0.80;;;0.68;;
27293;SDS011;14785;52.556;13.430;2022-09-21T17:22:59;1.20;;;0.73;;
27293;SDS011;14785;52.556;13.430;2022-09-21T17:25:26;1.05;;;0.73;;
27293;SDS011;14785;52.556;13.430;2022-09-21T17:27:53;1.08;;;0.75;;
27293;SDS011;14785;52.556;13.430;2022-09-21T17:30:22;1.00;;;0.55;;
27293;SDS011;14785;52.556;13.430;2022-09-21T17:32:49;2.88;;;0.85;;
27293;SDS011;14785;52.556;13.430;2022-09-21T17:38:05;2.15;;;0.80;;
27293;SDS011;14785;52.556;13.430;2022-09-21T17:40:35;8.45;;;1.55;;
27293;SDS011;14785;52.556;13.430;2022-09-21T17:48:25;10.18;;;3.25;;
27293;SDS011;14785;52.556;13.430;2022-09-21T17:50:51;6.00;;;2.13;;
27293;SDS011;14785;52.556;13.430;2022-09-21T17:53:17;3.03;;;1.40;;
27293;SDS011;14785;52.556;13.430;2022-09-21T17:56:08;3.20;;;1.20;;
27293;SDS011;14785;52.556;13.430;2022-09-21T17:58:49;3.30;;;1.48;;
27293;SDS011;14785;52.556;13.430;2022-09-21T18:04:03;2.55;;;1.58;;
27293;SDS011;14785;52.556;13.430;2022-09-21T18:06:30;6.22;;;1.92;;
27293;SDS011;14785;52.556;13.430;2022-09-21T18:08:56;3.58;;;1.42;;
27293;SDS011;14785;52.556;13.430;2022-09-21T18:22:22;2.80;;;1.83;;
27293;SDS011;14785;52.556;13.430;2022-09-21T18:24:52;7.22;;;1.90;;
27293;SDS011;14785;52.556;13.430;2022-09-21T18:27:20;2.80;;;1.58;;
27293;SDS011;14785;52.556;13.430;2022-09-21T18:29:48;1.95;;;1.15;;
27293;SDS011;14785;52.556;13.430;2022-09-21T18:37:51;4.50;;;2.08;;
27293;SDS011;14785;52.556;13.430;2022-09-21T18:40:58;3.22;;;1.65;;
27293;SDS011;14785;52.556;13.430;2022-09-21T18:52:29;2.20;;;1.48;;